createdAt,value
2018-03-03T00:02:09.898Z,43.73
2018-03-03T00:04:43.719Z,42.90
2018-03-03T00:07:17.566Z,43.27
2018-03-03T00:09:51.692Z,42.57
2018-03-03T00:12:25.761Z,43.27
2018-03-03T00:14:59.802Z,44.90
2018-03-03T00:17:33.634Z,46.60
2018-03-03T00:20:08.525Z,43.83
2018-03-03T00:22:43.163Z,44.20
2018-03-03T00:25:17.776Z,46.27
2018-03-03T00:27:51.742Z,44.30
2018-03-03T00:30:26.710Z,43.83
2018-03-03T00:33:00.877Z,43.67
2018-03-03T00:35:34.637Z,46.30
2018-03-03T00:38:08.589Z,44.73
2018-03-03T00:40:42.254Z,44.93
2018-03-03T00:43:16.987Z,45.77
2018-03-03T00:45:51.003Z,45.77
2018-03-03T00:48:25.373Z,45.77
2018-03-03T00:51:00.041Z,46.03
2018-03-03T00:53:34.977Z,44.97
2018-03-03T00:56:08.985Z,45.40
2018-03-03T00:58:43.717Z,44.53
2018-03-03T01:01:17.650Z,43.90
2018-03-03T01:03:51.406Z,43.63
2018-03-03T01:06:25.911Z,52.00
2018-03-03T01:09:00.065Z,47.57
2018-03-03T01:11:33.984Z,45.40
2018-03-03T01:14:07.641Z,55.03
2018-03-03T01:16:41.674Z,48.43
2018-03-03T01:19:15.621Z,45.70
2018-03-03T01:21:49.504Z,44.93
2018-03-03T01:24:23.470Z,44.87
2018-03-03T01:26:57.377Z,45.20
2018-03-03T01:29:31.349Z,45.17
2018-03-03T01:32:06.310Z,44.93
2018-03-03T01:34:41.185Z,45.83
2018-03-03T01:37:15.252Z,47.90
2018-03-03T01:39:49.027Z,47.47
2018-03-03T01:42:23.673Z,47.53
2018-03-03T01:44:59.030Z,48.73
2018-03-03T01:47:33.310Z,47.47
2018-03-03T01:50:07.138Z,47.77
2018-03-03T01:52:40.807Z,47.33
2018-03-03T01:55:14.531Z,48.10
2018-03-03T01:57:48.390Z,47.87
2018-03-03T02:00:22.381Z,49.50
2018-03-03T02:02:56.801Z,49.20
2018-03-03T02:05:30.784Z,50.97
2018-03-03T02:08:04.618Z,48.57
2018-03-03T02:10:39.323Z,47.30
2018-03-03T02:13:13.401Z,51.27
2018-03-03T02:15:47.455Z,51.13
2018-03-03T02:18:21.284Z,50.93
2018-03-03T02:20:55.405Z,51.57
2018-03-03T02:23:29.876Z,50.77
2018-03-03T02:26:03.634Z,52.10
2018-03-03T02:28:37.261Z,50.87
2018-03-03T02:31:11.027Z,49.90
2018-03-03T02:33:45.851Z,51.10
2018-03-03T02:36:20.229Z,47.57
2018-03-03T02:38:54.677Z,50.47
2018-03-03T02:41:28.425Z,49.40
2018-03-03T02:44:02.818Z,50.90
2018-03-03T02:46:36.741Z,52.10
2018-03-03T02:49:10.765Z,49.80
2018-03-03T02:51:44.745Z,49.57
2018-03-03T02:54:19.255Z,50.63
2018-03-03T02:56:54.638Z,49.63
2018-03-03T02:59:29.538Z,50.93
2018-03-03T03:02:04.395Z,50.37
2018-03-03T03:04:38.477Z,48.73
2018-03-03T03:07:12.122Z,48.07
2018-03-03T03:09:45.860Z,49.17
2018-03-03T03:12:19.617Z,53.13
2018-03-03T03:14:53.580Z,50.93
2018-03-03T03:17:27.820Z,51.53
2018-03-03T03:20:01.681Z,49.60
2018-03-03T03:22:36.194Z,49.20
2018-03-03T03:25:10.233Z,49.67
2018-03-03T03:27:44.730Z,50.03
2018-03-03T03:30:18.897Z,48.77
2018-03-03T03:32:52.734Z,50.23
2018-03-03T03:35:26.597Z,49.50
2018-03-03T03:38:00.484Z,48.90
2018-03-03T03:40:34.934Z,50.60
2018-03-03T03:43:09.005Z,49.73
2018-03-03T03:45:43.129Z,49.20
2018-03-03T03:48:17.713Z,48.17
2018-03-03T03:50:51.717Z,47.00
2018-03-03T03:53:25.591Z,48.63
2018-03-03T03:55:59.586Z,48.00
2018-03-03T03:58:34.881Z,48.00
2018-03-03T04:01:09.142Z,48.60
2018-03-03T04:03:43.740Z,50.00
2018-03-03T04:06:17.832Z,47.43
2018-03-03T04:08:52.524Z,48.47
2018-03-03T04:11:27.549Z,48.90
2018-03-03T04:14:01.642Z,46.57
2018-03-03T04:16:35.509Z,49.50
2018-03-03T04:19:09.451Z,48.67
2018-03-03T04:21:43.898Z,49.27
2018-03-03T04:24:18.433Z,48.37
2018-03-03T04:26:52.192Z,47.47
2018-03-03T04:29:26.700Z,47.93
2018-03-03T04:32:00.664Z,48.00
2018-03-03T04:34:34.315Z,48.30
2018-03-03T04:37:08.169Z,49.97
2018-03-03T04:39:41.959Z,47.70
2018-03-03T04:42:15.845Z,47.57
2018-03-03T04:44:50.640Z,49.30
2018-03-03T04:47:24.670Z,46.70
2018-03-03T04:50:00.105Z,48.67
2018-03-03T04:52:34.105Z,47.80
2018-03-03T04:55:07.817Z,47.83
2018-03-03T04:57:41.533Z,46.40
2018-03-03T05:03:24.245Z,48.20
2018-03-03T05:06:01.477Z,47.73
2018-03-03T05:08:36.023Z,48.63
2018-03-03T05:11:10.293Z,48.73
2018-03-03T05:13:44.817Z,45.27
2018-03-03T05:16:23.625Z,46.00
2018-03-03T05:19:04.090Z,47.70
2018-03-03T05:21:44.619Z,45.87
2018-03-03T05:24:25.504Z,45.90
2018-03-03T05:27:05.023Z,46.87
2018-03-03T05:29:44.896Z,45.17
2018-03-03T05:32:24.809Z,45.07
2018-03-03T05:35:05.015Z,47.57
2018-03-03T05:37:45.103Z,46.27
2018-03-03T05:40:23.437Z,44.80
2018-03-03T05:46:10.061Z,46.17
2018-03-03T05:48:49.149Z,46.03
2018-03-03T05:51:24.165Z,47.13
2018-03-03T05:54:04.102Z,45.87
2018-03-03T05:56:44.215Z,46.77
2018-03-03T05:59:24.452Z,45.30
2018-03-03T06:02:04.427Z,47.93
2018-03-03T06:04:44.001Z,47.13
2018-03-03T06:10:25.110Z,48.40
2018-03-03T06:12:59.638Z,47.53
2018-03-03T06:15:35.068Z,46.63
2018-03-03T06:18:09.106Z,49.57
2018-03-03T06:20:42.930Z,49.27
2018-03-03T06:23:17.380Z,47.40
2018-03-03T06:25:51.367Z,48.07
2018-03-03T06:28:25.084Z,46.57
2018-03-03T06:30:59.152Z,48.47
2018-03-03T06:33:33.245Z,48.00
2018-03-03T06:36:07.293Z,50.23
2018-03-03T06:38:42.184Z,47.13
2018-03-03T06:41:16.342Z,47.37
2018-03-03T06:43:50.932Z,48.43
2018-03-03T06:46:25.069Z,49.57
2018-03-03T06:48:59.208Z,50.53
2018-03-03T06:51:33.096Z,49.93
2018-03-03T06:54:07.086Z,49.30
2018-03-03T06:56:40.814Z,51.60
2018-03-03T06:59:14.900Z,48.83
2018-03-03T07:01:48.789Z,49.00
2018-03-03T07:04:22.798Z,50.97
2018-03-03T07:06:56.640Z,49.20
2018-03-03T07:09:30.589Z,50.20
2018-03-03T07:12:04.566Z,50.53
2018-03-03T07:14:39.305Z,49.73
2018-03-03T07:17:13.798Z,50.93
2018-03-03T07:19:48.368Z,50.63
2018-03-03T07:22:23.423Z,49.40
2018-03-03T07:24:57.760Z,48.50
2018-03-03T07:27:32.274Z,49.60
2018-03-03T07:30:06.305Z,49.23
2018-03-03T07:32:40.000Z,49.57
2018-03-03T07:35:13.712Z,49.47
2018-03-03T07:37:48.346Z,51.33
2018-03-03T07:40:22.648Z,49.17
2018-03-03T07:42:56.582Z,49.17
2018-03-03T07:45:31.394Z,51.53
2018-03-03T07:48:05.550Z,49.67
2018-03-03T07:50:39.609Z,51.50
2018-03-03T07:53:13.505Z,49.43
2018-03-03T07:55:48.205Z,50.07
2018-03-03T07:58:32.318Z,50.47
2018-03-03T08:01:06.553Z,48.93
2018-03-03T08:03:41.164Z,50.77
2018-03-03T08:06:15.614Z,51.63
2018-03-03T08:08:50.999Z,48.97
2018-03-03T08:11:24.672Z,50.60
2018-03-03T08:14:00.128Z,51.47
2018-03-03T08:16:34.653Z,50.97
2018-03-03T08:19:09.612Z,49.60
2018-03-03T08:21:43.643Z,48.97
2018-03-03T08:24:17.755Z,52.00
2018-03-03T08:26:51.941Z,51.40
2018-03-03T08:29:26.134Z,52.90
2018-03-03T08:32:00.245Z,50.57
2018-03-03T08:34:34.306Z,50.93
2018-03-03T08:37:09.165Z,51.17
2018-03-03T08:39:43.870Z,49.93
2018-03-03T08:42:18.029Z,51.40
2018-03-03T08:44:51.774Z,51.07
2018-03-03T08:47:25.384Z,50.47
2018-03-03T08:49:59.216Z,53.13
2018-03-03T08:52:33.357Z,52.97
2018-03-03T08:55:07.308Z,53.97
2018-03-03T08:57:41.354Z,52.67
2018-03-03T09:00:16.920Z,55.40
2018-03-03T09:02:52.118Z,53.00
2018-03-03T09:05:26.223Z,53.40
2018-03-03T09:08:00.168Z,52.87
2018-03-03T09:10:34.540Z,52.53
2018-03-03T09:13:09.417Z,54.23
2018-03-03T09:15:43.977Z,53.20
2018-03-03T09:18:17.986Z,55.67
2018-03-03T09:20:52.541Z,56.33
2018-03-03T09:23:27.097Z,53.60
2018-03-03T09:26:01.549Z,53.13
2018-03-03T09:28:36.789Z,54.70
2018-03-03T09:31:11.409Z,53.33
2018-03-03T09:33:46.101Z,54.57
2018-03-03T09:36:20.486Z,54.90
2018-03-03T09:38:55.785Z,54.13
2018-03-03T09:41:31.129Z,54.53
2018-03-03T09:44:05.329Z,55.17
2018-03-03T09:46:39.362Z,54.83
2018-03-03T09:49:14.073Z,54.90
2018-03-03T09:51:47.880Z,56.37
2018-03-03T09:54:22.369Z,52.90
2018-03-03T09:56:56.621Z,54.83
2018-03-03T09:59:30.433Z,52.37
2018-03-03T10:02:06.294Z,54.10
2018-03-03T10:04:38.551Z,54.73
2018-03-03T10:07:13.082Z,52.63
2018-03-03T10:09:46.933Z,52.60
2018-03-03T10:12:21.710Z,54.57
2018-03-03T10:14:56.621Z,54.63
2018-03-03T10:17:31.068Z,55.40
2018-03-03T10:20:04.881Z,55.60
2018-03-03T10:22:39.505Z,54.03
2018-03-03T10:25:14.718Z,54.03
2018-03-03T10:27:49.550Z,52.63
2018-03-03T10:30:24.060Z,53.43
2018-03-03T10:32:57.840Z,50.90
2018-03-03T10:35:32.096Z,52.40
2018-03-03T10:38:06.380Z,53.00
2018-03-03T10:40:43.653Z,54.47
2018-03-03T10:43:17.416Z,51.27
2018-03-03T10:45:58.133Z,53.37
2018-03-03T10:48:33.289Z,52.50
2018-03-03T10:51:07.233Z,53.90
2018-03-03T10:53:41.197Z,51.50
2018-03-03T10:56:14.774Z,55.73
2018-03-03T10:58:48.841Z,53.57
2018-03-03T11:01:22.542Z,52.60
2018-03-03T11:03:57.308Z,51.20
2018-03-03T11:06:31.985Z,52.07
2018-03-03T11:09:06.565Z,49.80
2018-03-03T11:11:40.652Z,51.70
2018-03-03T11:14:14.553Z,51.10
2018-03-03T11:16:49.173Z,47.20
2018-03-03T11:19:24.318Z,50.43
2018-03-03T11:21:58.664Z,48.10
2018-03-03T11:24:32.655Z,50.13
2018-03-03T11:27:06.549Z,47.43
2018-03-03T11:29:41.399Z,45.63
2018-03-03T11:32:16.471Z,48.07
2018-03-03T11:34:50.968Z,46.73
2018-03-03T11:37:25.854Z,46.07
2018-03-03T11:39:59.996Z,46.27
2018-03-03T11:42:34.015Z,48.20
2018-03-03T11:45:07.848Z,51.43
2018-03-03T11:47:41.969Z,46.50
2018-03-03T11:50:16.132Z,49.83
2018-03-03T11:52:50.186Z,49.80
2018-03-03T11:55:24.179Z,52.53
2018-03-03T11:57:57.980Z,46.93
2018-03-03T12:00:32.673Z,47.30
2018-03-03T12:03:06.333Z,45.23
2018-03-03T12:05:40.926Z,47.13
2018-03-03T12:08:14.721Z,42.37
2018-03-03T12:10:49.521Z,44.97
2018-03-03T12:13:23.536Z,49.13
2018-03-03T12:15:57.389Z,45.53
2018-03-03T12:18:31.850Z,43.43
2018-03-03T12:21:05.929Z,42.87
2018-03-03T12:23:39.780Z,43.67
2018-03-03T12:26:13.526Z,43.77
2018-03-03T12:28:47.604Z,50.50
2018-03-03T12:31:21.655Z,42.63
2018-03-03T12:33:55.569Z,42.70
2018-03-03T12:36:30.289Z,43.77
2018-03-03T12:39:05.558Z,42.73
2018-03-03T12:41:39.724Z,42.63
2018-03-03T12:44:13.896Z,45.40
2018-03-03T12:46:49.497Z,46.17
2018-03-03T12:49:23.687Z,44.00
2018-03-03T12:51:58.807Z,43.53
2018-03-03T12:54:33.113Z,45.23
2018-03-03T12:57:07.624Z,44.33
2018-03-03T12:59:41.848Z,51.57
2018-03-03T13:02:16.593Z,51.53
2018-03-03T13:04:51.112Z,43.43
2018-03-03T13:07:26.093Z,47.00
2018-03-03T13:10:00.215Z,42.97
2018-03-03T13:12:34.306Z,43.77
2018-03-03T13:15:08.373Z,41.30
2018-03-03T13:17:43.653Z,47.00
2018-03-03T13:20:19.474Z,42.10
2018-03-03T13:22:54.163Z,41.93
2018-03-03T13:25:29.532Z,47.40
2018-03-03T13:28:03.620Z,41.57
2018-03-03T13:30:37.334Z,40.60
2018-03-03T13:33:11.304Z,42.07
2018-03-03T13:35:45.181Z,41.07
2018-03-03T13:38:19.762Z,40.20
2018-03-03T13:40:54.366Z,39.30
2018-03-03T13:43:28.387Z,41.63
2018-03-03T13:46:03.060Z,39.83
2018-03-03T13:48:37.039Z,40.30
2018-03-03T13:51:11.864Z,40.67
2018-03-03T13:53:45.604Z,39.53
2018-03-03T13:56:19.611Z,40.43
2018-03-03T13:58:53.369Z,41.13
2018-03-03T14:01:27.184Z,41.27
2018-03-03T14:04:01.472Z,40.87
2018-03-03T14:06:36.558Z,40.63
2018-03-03T14:09:11.819Z,41.93
2018-03-03T14:11:46.408Z,43.23
2018-03-03T14:14:20.348Z,41.80
2018-03-03T14:16:54.493Z,42.20
2018-03-03T14:19:28.393Z,42.23
2018-03-03T14:22:03.689Z,44.70
2018-03-03T14:24:37.679Z,43.50
2018-03-03T14:27:11.762Z,42.43
2018-03-03T14:29:46.885Z,43.63
2018-03-03T14:32:21.236Z,43.70
2018-03-03T14:34:55.307Z,43.63
2018-03-03T14:37:29.366Z,43.87
2018-03-03T14:40:02.984Z,44.53
2018-03-03T14:42:36.790Z,45.10
2018-03-03T14:45:10.558Z,46.00
2018-03-03T14:47:44.352Z,46.30
2018-03-03T14:50:19.069Z,49.67
2018-03-03T14:52:53.724Z,44.20
2018-03-03T14:55:27.769Z,47.30
2018-03-03T14:58:01.626Z,46.70
2018-03-03T15:00:36.915Z,47.57
2018-03-03T15:03:10.753Z,46.50
2018-03-03T15:05:45.064Z,45.87
2018-03-03T15:08:19.181Z,45.47
2018-03-03T15:10:53.159Z,46.47
2018-03-03T15:13:28.047Z,46.80
2018-03-03T15:16:02.759Z,46.57
2018-03-03T15:18:37.168Z,46.93
2018-03-03T15:21:11.373Z,48.60
2018-03-03T15:23:45.709Z,46.33
2018-03-03T15:26:19.642Z,46.97
2018-03-03T15:28:54.217Z,45.67
2018-03-03T15:31:29.150Z,47.27
2018-03-03T15:34:02.764Z,47.27
2018-03-03T15:36:37.165Z,44.47
2018-03-03T15:39:11.528Z,46.27
2018-03-03T15:41:45.669Z,45.60
2018-03-03T15:44:19.891Z,44.13
2018-03-03T15:46:53.662Z,46.17
2018-03-03T15:49:27.549Z,45.43
2018-03-03T15:52:01.650Z,45.53
2018-03-03T15:54:36.254Z,44.73
2018-03-03T15:57:10.231Z,46.20
2018-03-03T15:59:44.217Z,46.83
2018-03-03T16:02:19.455Z,47.43
2018-03-03T16:04:54.128Z,50.00
2018-03-03T16:07:28.085Z,48.87
2018-03-03T16:10:02.322Z,49.70
2018-03-03T16:12:36.348Z,49.17
2018-03-03T16:15:10.633Z,49.17
2018-03-03T16:17:45.161Z,50.07
2018-03-03T16:20:19.567Z,49.37
2018-03-03T16:22:53.466Z,50.90
2018-03-03T16:25:28.177Z,50.00
2018-03-03T16:28:02.526Z,47.53
2018-03-03T16:30:36.560Z,49.63
2018-03-03T16:33:10.717Z,59.63
2018-03-03T16:35:44.741Z,64.37
2018-03-03T16:38:18.682Z,60.67
2018-03-03T16:40:52.744Z,60.20
2018-03-03T16:43:26.855Z,59.70
2018-03-03T16:46:00.888Z,63.80
2018-03-03T16:48:35.024Z,58.73
2018-03-03T16:51:09.342Z,57.77
2018-03-03T16:53:43.999Z,58.27
2018-03-03T16:56:19.074Z,55.53
2018-03-03T16:58:54.054Z,55.07
2018-03-03T17:01:28.121Z,53.57
2018-03-03T17:04:02.739Z,57.23
2018-03-03T17:06:36.470Z,52.97
2018-03-03T17:09:10.973Z,54.80
2018-03-03T17:11:45.030Z,58.20
2018-03-03T17:14:18.951Z,63.47
2018-03-03T17:16:53.696Z,64.80
2018-03-03T17:19:29.071Z,60.07
2018-03-03T17:22:03.136Z,61.60
2018-03-03T17:24:37.179Z,61.83
2018-03-03T17:27:12.158Z,63.50
2018-03-03T17:29:46.486Z,64.13
2018-03-03T17:32:20.839Z,65.50
2018-03-03T17:34:54.617Z,63.27
2018-03-03T17:37:28.936Z,66.77
2018-03-03T17:40:03.197Z,63.27
2018-03-03T17:42:38.295Z,66.13
2018-03-03T17:45:12.697Z,63.00
2018-03-03T17:47:46.857Z,64.30
2018-03-03T17:50:21.585Z,59.93
2018-03-03T17:52:56.550Z,61.60
2018-03-03T17:55:30.886Z,59.50
2018-03-03T17:58:05.957Z,60.90
2018-03-03T18:00:41.034Z,60.57
2018-03-03T18:03:14.906Z,63.47
2018-03-03T18:05:48.692Z,62.67
2018-03-03T18:08:22.781Z,58.43
2018-03-03T18:10:56.486Z,55.03
2018-03-03T18:13:31.962Z,53.57
2018-03-03T18:16:07.116Z,60.23
2018-03-03T18:18:41.030Z,62.07
2018-03-03T18:21:15.902Z,59.83
2018-03-03T18:23:50.158Z,54.30
2018-03-03T18:26:25.018Z,53.83
2018-03-03T18:28:59.130Z,54.87
2018-03-03T18:31:33.122Z,56.33
2018-03-03T18:34:07.729Z,56.53
2018-03-03T18:36:42.258Z,53.57
2018-03-03T18:39:16.062Z,51.67
2018-03-03T18:41:49.947Z,51.47
2018-03-03T18:44:23.675Z,53.40
2018-03-03T18:46:57.824Z,51.50
2018-03-03T18:49:32.926Z,49.70
2018-03-03T18:52:06.678Z,53.57
2018-03-03T18:54:41.174Z,53.20
2018-03-03T18:57:16.662Z,52.97
2018-03-03T18:59:50.380Z,51.37
2018-03-03T19:02:24.723Z,52.40
2018-03-03T19:04:58.935Z,51.90
2018-03-03T19:07:35.095Z,53.87
2018-03-03T19:10:09.704Z,52.67
2018-03-03T19:12:43.457Z,52.17
2018-03-03T19:15:17.564Z,54.07
2018-03-03T19:17:51.641Z,52.27
2018-03-03T19:20:25.621Z,52.70
2018-03-03T19:22:59.424Z,52.07
2018-03-03T19:25:33.246Z,54.17
2018-03-03T19:28:06.930Z,50.77
2018-03-03T19:30:40.693Z,52.00
2018-03-03T19:33:15.243Z,51.70
2018-03-03T19:35:50.144Z,54.83
2018-03-03T19:38:24.519Z,52.10
2018-03-03T19:40:58.943Z,52.17
2018-03-03T19:43:33.514Z,53.67
2018-03-03T19:46:08.240Z,50.97
2018-03-03T19:48:42.432Z,52.27
2018-03-03T19:51:16.177Z,54.23
2018-03-03T19:53:50.181Z,52.70
2018-03-03T19:56:24.700Z,54.77
2018-03-03T19:58:59.963Z,53.60
2018-03-03T20:01:33.958Z,54.03
2018-03-03T20:04:08.721Z,53.33
2018-03-03T20:06:42.340Z,53.00
2018-03-03T20:09:16.817Z,53.60
2018-03-03T20:11:52.022Z,54.70
2018-03-03T20:14:25.887Z,53.40
2018-03-03T20:16:59.999Z,54.70
2018-03-03T20:19:34.370Z,52.87
2018-03-03T20:22:08.371Z,54.77
2018-03-03T20:24:42.968Z,55.40
2018-03-03T20:27:17.444Z,53.30
2018-03-03T20:29:51.819Z,55.87
2018-03-03T20:32:26.050Z,54.03
2018-03-03T20:34:59.879Z,55.60
2018-03-03T20:37:33.530Z,57.17
2018-03-03T20:40:07.374Z,55.77
2018-03-03T20:42:42.121Z,55.87
2018-03-03T20:45:16.653Z,58.33
2018-03-03T20:47:50.652Z,59.53
2018-03-03T20:50:24.778Z,56.70
2018-03-03T20:52:58.702Z,57.83
2018-03-03T20:55:32.867Z,54.77
2018-03-03T20:58:07.698Z,55.80
2018-03-03T21:00:42.938Z,57.60
2018-03-03T21:03:17.976Z,57.30
2018-03-03T21:05:53.417Z,58.13
2018-03-03T21:08:27.265Z,55.63
2018-03-03T21:11:01.264Z,58.47
2018-03-03T21:13:35.689Z,58.87
2018-03-03T21:16:09.893Z,65.10
2018-03-03T21:18:44.110Z,59.63
2018-03-03T21:21:19.148Z,56.27
2018-03-03T21:23:53.337Z,57.83
2018-03-03T21:26:27.578Z,58.40
2018-03-03T21:29:01.592Z,61.23
2018-03-03T21:31:36.250Z,57.93
2018-03-03T21:34:10.154Z,60.80
2018-03-03T21:36:44.936Z,59.50
2018-03-03T21:39:19.208Z,57.43
2018-03-03T21:41:53.108Z,59.20
2018-03-03T21:44:27.059Z,58.27
2018-03-03T21:47:00.860Z,55.20
2018-03-03T21:49:35.716Z,58.33
2018-03-03T21:52:09.700Z,59.97
2018-03-03T21:54:43.533Z,55.47
2018-03-03T21:57:18.338Z,59.63
2018-03-03T21:59:52.959Z,59.30
2018-03-03T22:02:27.587Z,56.67
2018-03-03T22:05:01.753Z,58.97
2018-03-03T22:07:37.050Z,60.20
2018-03-03T22:10:11.394Z,58.73
2018-03-03T22:12:45.519Z,60.47
2018-03-03T22:15:19.483Z,59.33
2018-03-03T22:17:53.651Z,61.80
2018-03-03T22:20:27.591Z,61.10
2018-03-03T22:23:02.493Z,60.60
2018-03-03T22:25:36.831Z,59.90
2018-03-03T22:28:10.906Z,61.40
2018-03-03T22:30:44.881Z,60.87
2018-03-03T22:33:19.731Z,61.00
2018-03-03T22:35:53.613Z,59.60
2018-03-03T22:38:27.653Z,59.13
2018-03-03T22:41:02.005Z,62.10
2018-03-03T22:43:35.884Z,62.40
2018-03-03T22:46:09.997Z,62.80
2018-03-03T22:48:45.388Z,65.17
2018-03-03T22:51:19.965Z,60.00
2018-03-03T22:53:54.199Z,61.07
2018-03-03T22:56:28.229Z,63.20
2018-03-03T22:59:02.939Z,67.03
2018-03-03T23:01:36.785Z,67.80
2018-03-03T23:04:11.399Z,67.37
2018-03-03T23:06:45.432Z,66.43
2018-03-03T23:09:20.055Z,68.63
2018-03-03T23:11:54.252Z,69.13
2018-03-03T23:14:28.093Z,71.40
2018-03-03T23:17:02.401Z,71.67
2018-03-03T23:19:36.426Z,71.33
2018-03-03T23:22:10.268Z,70.40
2018-03-03T23:24:44.413Z,72.63
2018-03-03T23:27:19.309Z,80.77
2018-03-03T23:29:53.661Z,77.20
2018-03-03T23:32:28.172Z,74.63
2018-03-03T23:35:02.363Z,72.53
2018-03-03T23:37:36.865Z,70.40
2018-03-03T23:40:11.362Z,76.40
2018-03-03T23:42:46.771Z,75.30
2018-03-03T23:45:20.533Z,77.03
2018-03-03T23:47:55.502Z,80.67
2018-03-03T23:50:29.657Z,86.03
2018-03-03T23:53:03.878Z,84.00
2018-03-03T23:55:38.226Z,84.97
2018-03-03T23:58:12.024Z,84.23
